EGBB/BHX METAR and TAF weather

Enter ICAO airport designator
Station Type Date Time Source
EGBB METAR 2021/05/13 00:20 UTC NOAA

EGBB 130020Z 29003KT CAVOK 10/07 Q1007


Station Type Date Time Source
EGBB Decoded METAR 2021/05/13 00:20 UTC NOAA

Birmingham / Airport, United Kingdom (EGBB) 52-27N 001-44W 0M
May 12, 2021 - 08:20 PM EDT / 2021.05.13 0020 UTC
Wind: from the WNW (290 degrees) at 3 MPH (3 KT):0
Visibility: greater than 7 mile(s):0
Temperature: 50 F (10 C)
Dew Point: 44 F (7 C)
Relative Humidity: 81%
Pressure (altimeter): 29.74 in. Hg (1007 hPa)
ob: EGBB 130020Z 29003KT CAVOK 10/07 Q1007
cycle: 0

Station Type Date Time Source
EGBB TAF 2021/05/12 18:09 UTC NOAA

TAF EGBB 121655Z 1218/1318 VRB04KT 9999 SCT045
TEMPO 1218/1220 7000 SHRA PROB30
TEMPO 1300/1310 6000 RA BKN010
BECMG 1309/1312 07010KT
TEMPO 1310/1318 7000 SHRA PROB30
TEMPO 1312/1318 3000 +SHRA

Example: see airport list